createdAt,value
2022-10-01T00:17:35.973Z,41.27
2022-10-01T00:18:59.114Z,41.63
2022-10-01T00:19:51.231Z,42.25
2022-10-01T00:40:47.931Z,41.75
2022-10-01T00:41:53.404Z,39.25
2022-10-01T00:42:58.937Z,42.13
2022-10-01T00:44:05.982Z,39.25
2022-10-01T00:45:12.219Z,43.06
2022-10-01T00:46:37.390Z,42.38
2022-10-01T02:16:30.243Z,40.19
2022-10-01T02:17:58.974Z,40.06
2022-10-01T03:09:44.951Z,40.50
2022-10-01T03:10:49.058Z,38.88
2022-10-01T03:11:52.932Z,36.06
2022-10-01T03:12:56.917Z,41.00
2022-10-01T03:14:04.084Z,39.13
2022-10-01T03:40:26.824Z,33.81
2022-10-01T03:41:34.531Z,26.00
2022-10-01T03:42:41.000Z,32.13
2022-10-01T04:35:26.191Z,18.69
2022-10-01T04:39:00.797Z,16.87
2022-10-01T04:40:03.665Z,17.00
2022-10-01T04:41:10.705Z,17.94
2022-10-01T04:42:14.961Z,15.88
2022-10-01T04:43:20.328Z,13.75
2022-10-01T04:44:24.277Z,18.37
2022-10-01T04:45:30.690Z,17.94
2022-10-01T04:46:34.667Z,13.75
2022-10-01T04:47:38.620Z,18.19
2022-10-01T04:48:42.546Z,19.12
2022-10-01T04:49:46.449Z,14.31
2022-10-01T04:50:50.464Z,16.56
2022-10-01T04:51:55.948Z,16.94
2022-10-01T04:53:08.225Z,18.69
2022-10-01T04:54:07.218Z,19.56
2022-10-01T04:55:11.626Z,18.31
2022-10-01T04:56:17.255Z,16.81
2022-10-01T04:57:23.559Z,19.00
2022-10-01T04:58:27.469Z,16.25
2022-10-01T04:59:31.355Z,17.87
2022-10-01T05:00:43.660Z,21.00
2022-10-01T05:01:45.658Z,16.94
2022-10-01T05:02:52.860Z,16.50
2022-10-01T05:03:57.986Z,17.12
2022-10-01T05:05:12.559Z,15.38
2022-10-01T05:06:16.876Z,16.44
2022-10-01T05:07:22.954Z,16.06
2022-10-01T05:08:28.666Z,16.06
2022-10-01T05:09:36.165Z,16.94
2022-10-01T06:35:47.275Z,16.31
2022-10-01T06:36:54.949Z,15.44
2022-10-01T06:38:07.083Z,20.69
2022-10-01T07:01:18.378Z,15.19
2022-10-01T07:02:29.571Z,13.81
2022-10-01T10:19:51.090Z,4.06
2022-10-01T10:20:59.277Z,3.06
2022-10-01T10:22:17.709Z,2.81
2022-10-01T10:23:24.270Z,4.56
2022-10-01T10:24:36.974Z,2.25
2022-10-01T10:31:20.903Z,5.87
2022-10-01T10:32:26.252Z,3.50
2022-10-01T10:33:38.100Z,5.37
2022-10-01T10:34:44.019Z,3.44
2022-10-01T10:35:55.679Z,3.62
2022-10-01T10:37:34.307Z,2.56
2022-10-01T12:32:11.415Z,4.62
2022-10-01T12:33:36.139Z,4.75
2022-10-01T12:34:56.935Z,3.69
2022-10-01T13:03:24.314Z,7.56
2022-10-01T13:04:46.815Z,9.44
2022-10-01T13:05:56.420Z,5.56
2022-10-01T13:07:22.291Z,6.44
2022-10-01T13:08:40.492Z,4.94
2022-10-01T13:10:04.665Z,7.12
2022-10-01T13:11:31.803Z,3.37
2022-10-01T13:14:07.269Z,2.81
2022-10-01T13:15:18.275Z,3.56
2022-10-01T13:16:37.513Z,3.12
2022-10-01T14:46:52.791Z,35.69
2022-10-01T16:08:12.767Z,34.94
2022-10-01T16:46:56.017Z,30.75
2022-10-01T16:47:58.086Z,30.06
2022-10-01T16:49:07.770Z,34.13
2022-10-01T16:53:04.557Z,30.56
2022-10-01T17:16:03.767Z,30.00
2022-10-01T17:17:10.972Z,31.31
2022-10-01T17:18:15.096Z,28.44
2022-10-01T17:19:22.371Z,28.75
2022-10-01T17:20:34.045Z,30.25
2022-10-01T17:21:40.540Z,29.00
2022-10-01T17:22:46.193Z,31.62
2022-10-01T17:23:53.956Z,30.06
2022-10-01T17:25:05.126Z,28.75
2022-10-01T19:33:08.037Z,17.25
2022-10-01T19:34:44.134Z,17.87
2022-10-01T19:55:05.236Z,22.00
2022-10-01T20:15:54.841Z,23.50
2022-10-01T20:33:20.576Z,21.50
2022-10-01T20:34:53.918Z,18.56
2022-10-01T20:36:00.926Z,21.50
2022-10-01T20:37:25.657Z,21.44
2022-10-01T20:38:34.322Z,20.44
2022-10-01T20:39:44.359Z,20.19
2022-10-01T20:40:57.549Z,18.06
2022-10-01T20:42:05.963Z,21.94
2022-10-01T20:43:23.140Z,20.06
2022-10-01T20:44:35.647Z,17.62
2022-10-01T20:45:41.128Z,21.81
2022-10-01T20:46:49.657Z,22.62
2022-10-01T21:08:01.386Z,22.19
2022-10-01T21:41:53.495Z,21.31
2022-10-01T21:43:18.422Z,22.44
2022-10-01T21:44:40.264Z,21.75
2022-10-01T21:45:59.321Z,21.69
2022-10-01T21:47:40.671Z,19.12
2022-10-01T21:48:52.234Z,19.31
2022-10-01T21:50:05.092Z,21.44
2022-10-01T21:51:17.983Z,19.44
2022-10-01T21:52:48.573Z,19.44
2022-10-01T21:54:17.898Z,21.44
2022-10-01T21:55:26.449Z,19.56
2022-10-01T21:56:47.269Z,22.44
2022-10-01T21:57:56.921Z,21.12
2022-10-01T21:59:09.399Z,20.37
2022-10-01T22:00:20.134Z,22.13
2022-10-01T22:03:15.634Z,20.88
2022-10-01T22:03:23.354Z,22.19
2022-10-01T22:04:38.867Z,20.37
2022-10-01T22:05:47.900Z,21.19
2022-10-01T22:07:02.884Z,21.50
2022-10-01T22:08:43.608Z,19.19
2022-10-01T22:09:53.402Z,18.19
2022-10-01T22:11:00.385Z,21.37
2022-10-01T22:12:06.629Z,19.44
